sensor_id;sensor_type;location;lat;lon;timestamp;P1;durP1;ratioP1;P2;durP2;ratioP2
23732;SDS011;12047;53.450;-2.286;2023-02-02T00:04:56;22.30;;;3.80;;
23732;SDS011;12047;53.450;-2.286;2023-02-02T00:09:57;26.45;;;3.83;;
23732;SDS011;12047;53.450;-2.286;2023-02-02T00:14:58;20.10;;;4.07;;
23732;SDS011;12047;53.450;-2.286;2023-02-02T00:20:04;28.85;;;3.95;;
23732;SDS011;12047;53.450;-2.286;2023-02-02T00:25:05;24.67;;;3.70;;
23732;SDS011;12047;53.450;-2.286;2023-02-02T00:30:10;28.08;;;3.97;;
23732;SDS011;12047;53.450;-2.286;2023-02-02T00:35:11;21.15;;;3.42;;
23732;SDS011;12047;53.450;-2.286;2023-02-02T00:40:12;19.33;;;3.28;;
23732;SDS011;12047;53.450;-2.286;2023-02-02T00:45:13;19.20;;;2.97;;
23732;SDS011;12047;53.450;-2.286;2023-02-02T00:50:19;21.80;;;3.90;;
23732;SDS011;12047;53.450;-2.286;2023-02-02T00:55:20;23.73;;;3.08;;
23732;SDS011;12047;53.450;-2.286;2023-02-02T01:00:22;15.45;;;3.22;;
23732;SDS011;12047;53.450;-2.286;2023-02-02T01:05:24;22.30;;;3.33;;
23732;SDS011;12047;53.450;-2.286;2023-02-02T01:10:27;19.50;;;2.95;;
23732;SDS011;12047;53.450;-2.286;2023-02-02T01:15:28;23.30;;;3.97;;
23732;SDS011;12047;53.450;-2.286;2023-02-02T01:20:29;21.42;;;3.20;;
23732;SDS011;12047;53.450;-2.286;2023-02-02T01:25:30;18.73;;;2.80;;
23732;SDS011;12047;53.450;-2.286;2023-02-02T01:30:33;20.30;;;2.83;;
23732;SDS011;12047;53.450;-2.286;2023-02-02T01:35:36;14.95;;;2.47;;
23732;SDS011;12047;53.450;-2.286;2023-02-02T01:40:44;18.35;;;2.95;;
23732;SDS011;12047;53.450;-2.286;2023-02-02T01:45:46;17.83;;;2.88;;
23732;SDS011;12047;53.450;-2.286;2023-02-02T01:50:51;16.48;;;3.08;;
23732;SDS011;12047;53.450;-2.286;2023-02-02T01:55:55;14.82;;;2.80;;
23732;SDS011;12047;53.450;-2.286;2023-02-02T02:00:56;13.13;;;2.70;;
23732;SDS011;12047;53.450;-2.286;2023-02-02T02:06:01;14.55;;;2.53;;
23732;SDS011;12047;53.450;-2.286;2023-02-02T02:11:05;16.42;;;2.22;;
23732;SDS011;12047;53.450;-2.286;2023-02-02T02:16:09;9.02;;;2.25;;
23732;SDS011;12047;53.450;-2.286;2023-02-02T02:21:27;11.23;;;2.10;;
23732;SDS011;12047;53.450;-2.286;2023-02-02T02:27:19;13.55;;;2.03;;
23732;SDS011;12047;53.450;-2.286;2023-02-02T02:43:06;15.90;;;2.20;;
23732;SDS011;12047;53.450;-2.286;2023-02-02T02:48:13;14.40;;;3.08;;
23732;SDS011;12047;53.450;-2.286;2023-02-02T02:53:15;10.43;;;2.33;;
23732;SDS011;12047;53.450;-2.286;2023-02-02T03:04:00;11.45;;;1.88;;
23732;SDS011;12047;53.450;-2.286;2023-02-02T03:09:13;10.52;;;1.80;;
23732;SDS011;12047;53.450;-2.286;2023-02-02T03:14:20;9.27;;;1.73;;
23732;SDS011;12047;53.450;-2.286;2023-02-02T03:19:21;11.13;;;1.75;;
23732;SDS011;12047;53.450;-2.286;2023-02-02T03:24:22;6.90;;;1.70;;
23732;SDS011;12047;53.450;-2.286;2023-02-02T03:29:22;9.20;;;1.85;;
23732;SDS011;12047;53.450;-2.286;2023-02-02T03:34:32;9.68;;;2.00;;
23732;SDS011;12047;53.450;-2.286;2023-02-02T03:39:33;8.32;;;1.80;;
23732;SDS011;12047;53.450;-2.286;2023-02-02T03:44:33;12.40;;;2.20;;
23732;SDS011;12047;53.450;-2.286;2023-02-02T03:49:37;13.10;;;2.20;;
23732;SDS011;12047;53.450;-2.286;2023-02-02T03:54:37;13.98;;;2.38;;
23732;SDS011;12047;53.450;-2.286;2023-02-02T03:59:38;12.38;;;2.70;;
23732;SDS011;12047;53.450;-2.286;2023-02-02T04:04:38;11.60;;;2.50;;
23732;SDS011;12047;53.450;-2.286;2023-02-02T04:09:39;17.58;;;2.47;;
23732;SDS011;12047;53.450;-2.286;2023-02-02T04:14:40;8.38;;;2.63;;
23732;SDS011;12047;53.450;-2.286;2023-02-02T04:19:45;14.07;;;2.60;;
23732;SDS011;12047;53.450;-2.286;2023-02-02T04:24:46;13.07;;;2.50;;
23732;SDS011;12047;53.450;-2.286;2023-02-02T04:29:47;12.30;;;2.40;;
23732;SDS011;12047;53.450;-2.286;2023-02-02T04:34:50;10.85;;;3.13;;
23732;SDS011;12047;53.450;-2.286;2023-02-02T04:39:51;10.38;;;2.42;;
23732;SDS011;12047;53.450;-2.286;2023-02-02T04:44:52;13.55;;;2.78;;
23732;SDS011;12047;53.450;-2.286;2023-02-02T04:50:00;12.43;;;2.70;;
23732;SDS011;12047;53.450;-2.286;2023-02-02T04:55:01;12.65;;;2.58;;
23732;SDS011;12047;53.450;-2.286;2023-02-02T05:00:04;10.35;;;2.80;;
23732;SDS011;12047;53.450;-2.286;2023-02-02T05:05:10;9.20;;;2.55;;
23732;SDS011;12047;53.450;-2.286;2023-02-02T05:10:15;7.75;;;2.75;;
23732;SDS011;12047;53.450;-2.286;2023-02-02T05:15:16;10.23;;;2.70;;
23732;SDS011;12047;53.450;-2.286;2023-02-02T05:20:17;12.52;;;2.75;;
23732;SDS011;12047;53.450;-2.286;2023-02-02T05:25:18;14.55;;;3.08;;
23732;SDS011;12047;53.450;-2.286;2023-02-02T05:30:21;12.50;;;2.65;;
23732;SDS011;12047;53.450;-2.286;2023-02-02T05:35:21;13.23;;;3.17;;
23732;SDS011;12047;53.450;-2.286;2023-02-02T05:40:22;10.10;;;3.15;;
23732;SDS011;12047;53.450;-2.286;2023-02-02T05:45:27;14.30;;;3.13;;
23732;SDS011;12047;53.450;-2.286;2023-02-02T05:50:28;8.93;;;3.30;;
23732;SDS011;12047;53.450;-2.286;2023-02-02T05:55:32;9.70;;;2.88;;
23732;SDS011;12047;53.450;-2.286;2023-02-02T06:00:45;9.85;;;2.63;;
23732;SDS011;12047;53.450;-2.286;2023-02-02T06:05:45;11.27;;;3.00;;
23732;SDS011;12047;53.450;-2.286;2023-02-02T06:10:46;5.70;;;2.55;;
23732;SDS011;12047;53.450;-2.286;2023-02-02T06:15:46;6.53;;;2.55;;
23732;SDS011;12047;53.450;-2.286;2023-02-02T06:20:54;13.90;;;3.28;;
23732;SDS011;12047;53.450;-2.286;2023-02-02T06:25:56;12.88;;;3.33;;
23732;SDS011;12047;53.450;-2.286;2023-02-02T06:31:03;10.70;;;2.90;;
23732;SDS011;12047;53.450;-2.286;2023-02-02T06:36:05;7.32;;;2.60;;
23732;SDS011;12047;53.450;-2.286;2023-02-02T06:41:06;11.52;;;2.28;;
23732;SDS011;12047;53.450;-2.286;2023-02-02T06:46:07;8.63;;;2.35;;
23732;SDS011;12047;53.450;-2.286;2023-02-02T06:51:07;8.57;;;2.28;;
23732;SDS011;12047;53.450;-2.286;2023-02-02T06:56:10;9.68;;;1.75;;
23732;SDS011;12047;53.450;-2.286;2023-02-02T07:01:12;5.30;;;1.80;;
23732;SDS011;12047;53.450;-2.286;2023-02-02T07:06:17;6.20;;;1.70;;
23732;SDS011;12047;53.450;-2.286;2023-02-02T07:11:25;8.10;;;1.30;;
23732;SDS011;12047;53.450;-2.286;2023-02-02T07:16:28;5.03;;;1.38;;
23732;SDS011;12047;53.450;-2.286;2023-02-02T07:21:29;5.63;;;1.40;;
23732;SDS011;12047;53.450;-2.286;2023-02-02T07:26:40;5.90;;;1.45;;
23732;SDS011;12047;53.450;-2.286;2023-02-02T07:31:43;3.78;;;1.42;;
23732;SDS011;12047;53.450;-2.286;2023-02-02T07:36:43;3.63;;;1.10;;
23732;SDS011;12047;53.450;-2.286;2023-02-02T07:41:44;3.92;;;1.35;;
23732;SDS011;12047;53.450;-2.286;2023-02-02T07:46:55;4.38;;;1.30;;
23732;SDS011;12047;53.450;-2.286;2023-02-02T07:51:56;5.78;;;1.42;;
23732;SDS011;12047;53.450;-2.286;2023-02-02T07:56:57;9.30;;;1.88;;
23732;SDS011;12047;53.450;-2.286;2023-02-02T08:02:03;8.45;;;1.95;;
23732;SDS011;12047;53.450;-2.286;2023-02-02T08:07:17;2.65;;;1.50;;
23732;SDS011;12047;53.450;-2.286;2023-02-02T08:12:20;5.55;;;1.90;;
23732;SDS011;12047;53.450;-2.286;2023-02-02T08:17:22;7.82;;;1.85;;
23732;SDS011;12047;53.450;-2.286;2023-02-02T08:22:25;5.82;;;2.05;;
23732;SDS011;12047;53.450;-2.286;2023-02-02T08:45:02;8.82;;;2.63;;
23732;SDS011;12047;53.450;-2.286;2023-02-02T09:07:19;6.22;;;2.50;;
23732;SDS011;12047;53.450;-2.286;2023-02-02T09:18:24;8.90;;;2.67;;
23732;SDS011;12047;53.450;-2.286;2023-02-02T09:23:42;7.95;;;2.58;;
23732;SDS011;12047;53.450;-2.286;2023-02-02T09:28:51;7.00;;;2.90;;
23732;SDS011;12047;53.450;-2.286;2023-02-02T09:39:06;8.50;;;2.80;;
23732;SDS011;12047;53.450;-2.286;2023-02-02T09:49:34;8.65;;;2.05;;
23732;SDS011;12047;53.450;-2.286;2023-02-02T09:54:49;5.70;;;2.17;;
23732;SDS011;12047;53.450;-2.286;2023-02-02T09:59:54;5.28;;;2.33;;
23732;SDS011;12047;53.450;-2.286;2023-02-02T10:05:05;3.75;;;1.38;;
23732;SDS011;12047;53.450;-2.286;2023-02-02T10:10:23;5.50;;;1.40;;
23732;SDS011;12047;53.450;-2.286;2023-02-02T10:21:02;2.60;;;1.20;;
23732;SDS011;12047;53.450;-2.286;2023-02-02T10:26:36;5.90;;;1.67;;
23732;SDS011;12047;53.450;-2.286;2023-02-02T10:37:13;2.95;;;1.30;;
23732;SDS011;12047;53.450;-2.286;2023-02-02T10:48:20;2.95;;;1.55;;
23732;SDS011;12047;53.450;-2.286;2023-02-02T10:53:29;4.68;;;1.92;;
23732;SDS011;12047;53.450;-2.286;2023-02-02T10:58:37;8.57;;;1.70;;
23732;SDS011;12047;53.450;-2.286;2023-02-02T11:03:48;3.90;;;1.90;;
23732;SDS011;12047;53.450;-2.286;2023-02-02T11:09:12;2.45;;;1.40;;
23732;SDS011;12047;53.450;-2.286;2023-02-02T11:14:24;5.55;;;1.52;;
23732;SDS011;12047;53.450;-2.286;2023-02-02T11:19:47;2.22;;;1.25;;
23732;SDS011;12047;53.450;-2.286;2023-02-02T11:24:49;3.20;;;1.00;;
23732;SDS011;12047;53.450;-2.286;2023-02-02T11:29:57;5.25;;;1.00;;
23732;SDS011;12047;53.450;-2.286;2023-02-02T11:46:51;4.07;;;1.65;;
23732;SDS011;12047;53.450;-2.286;2023-02-02T11:51:57;1.25;;;0.68;;
23732;SDS011;12047;53.450;-2.286;2023-02-02T11:57:14;3.08;;;1.20;;
23732;SDS011;12047;53.450;-2.286;2023-02-02T12:19:19;0.98;;;0.40;;
23732;SDS011;12047;53.450;-2.286;2023-02-02T12:24:47;2.28;;;0.68;;
23732;SDS011;12047;53.450;-2.286;2023-02-02T12:53:03;9.63;;;1.23;;
23732;SDS011;12047;53.450;-2.286;2023-02-02T13:14:45;3.22;;;0.80;;
23732;SDS011;12047;53.450;-2.286;2023-02-02T13:20:15;4.57;;;0.70;;
23732;SDS011;12047;53.450;-2.286;2023-02-02T13:25:30;3.40;;;0.55;;
23732;SDS011;12047;53.450;-2.286;2023-02-02T13:30:37;7.88;;;1.42;;
23732;SDS011;12047;53.450;-2.286;2023-02-02T13:35:59;3.00;;;0.63;;
23732;SDS011;12047;53.450;-2.286;2023-02-02T13:41:07;1.70;;;0.57;;
23732;SDS011;12047;53.450;-2.286;2023-02-02T13:51:51;4.07;;;0.80;;
23732;SDS011;12047;53.450;-2.286;2023-02-02T14:07:40;1.77;;;0.40;;
23732;SDS011;12047;53.450;-2.286;2023-02-02T14:12:46;4.15;;;0.70;;
23732;SDS011;12047;53.450;-2.286;2023-02-02T14:17:51;3.30;;;0.95;;
23732;SDS011;12047;53.450;-2.286;2023-02-02T14:22:53;1.58;;;0.65;;
23732;SDS011;12047;53.450;-2.286;2023-02-02T14:27:58;3.67;;;0.90;;
23732;SDS011;12047;53.450;-2.286;2023-02-02T14:38:32;1.55;;;0.60;;
23732;SDS011;12047;53.450;-2.286;2023-02-02T14:43:38;3.22;;;0.70;;
23732;SDS011;12047;53.450;-2.286;2023-02-02T14:49:04;3.08;;;0.75;;
23732;SDS011;12047;53.450;-2.286;2023-02-02T14:54:14;4.50;;;0.77;;
23732;SDS011;12047;53.450;-2.286;2023-02-02T14:59:37;4.35;;;0.88;;
23732;SDS011;12047;53.450;-2.286;2023-02-02T15:04:39;8.18;;;1.10;;
23732;SDS011;12047;53.450;-2.286;2023-02-02T15:09:41;6.35;;;1.10;;
23732;SDS011;12047;53.450;-2.286;2023-02-02T15:15:17;5.20;;;1.15;;
23732;SDS011;12047;53.450;-2.286;2023-02-02T15:32:32;3.38;;;1.27;;
23732;SDS011;12047;53.450;-2.286;2023-02-02T15:43:19;7.05;;;1.10;;
23732;SDS011;12047;53.450;-2.286;2023-02-02T15:53:46;4.82;;;1.40;;
23732;SDS011;12047;53.450;-2.286;2023-02-02T15:58:52;3.97;;;1.10;;
23732;SDS011;12047;53.450;-2.286;2023-02-02T16:04:44;2.92;;;0.82;;
23732;SDS011;12047;53.450;-2.286;2023-02-02T16:09:48;7.57;;;1.50;;
23732;SDS011;12047;53.450;-2.286;2023-02-02T16:14:50;2.03;;;1.00;;
23732;SDS011;12047;53.450;-2.286;2023-02-02T16:20:16;4.95;;;0.90;;
23732;SDS011;12047;53.450;-2.286;2023-02-02T16:31:57;2.13;;;0.90;;
23732;SDS011;12047;53.450;-2.286;2023-02-02T16:37:03;3.20;;;0.88;;
23732;SDS011;12047;53.450;-2.286;2023-02-02T16:42:39;4.28;;;1.10;;
23732;SDS011;12047;53.450;-2.286;2023-02-02T16:59:42;3.78;;;0.90;;
23732;SDS011;12047;53.450;-2.286;2023-02-02T17:58:51;8.98;;;2.75;;
23732;SDS011;12047;53.450;-2.286;2023-02-02T18:03:51;6.22;;;1.85;;
23732;SDS011;12047;53.450;-2.286;2023-02-02T18:09:00;8.68;;;1.67;;
23732;SDS011;12047;53.450;-2.286;2023-02-02T18:19:41;8.02;;;2.00;;
23732;SDS011;12047;53.450;-2.286;2023-02-02T18:24:57;8.05;;;1.90;;
23732;SDS011;12047;53.450;-2.286;2023-02-02T18:30:08;9.43;;;2.10;;
23732;SDS011;12047;53.450;-2.286;2023-02-02T18:41:07;5.53;;;1.20;;
23732;SDS011;12047;53.450;-2.286;2023-02-02T18:46:11;8.05;;;1.35;;
23732;SDS011;12047;53.450;-2.286;2023-02-02T18:51:20;14.25;;;2.30;;
23732;SDS011;12047;53.450;-2.286;2023-02-02T18:56:21;9.85;;;1.73;;
23732;SDS011;12047;53.450;-2.286;2023-02-02T19:01:43;6.53;;;1.60;;
23732;SDS011;12047;53.450;-2.286;2023-02-02T19:06:48;10.50;;;1.60;;
23732;SDS011;12047;53.450;-2.286;2023-02-02T19:12:11;7.10;;;1.77;;
23732;SDS011;12047;53.450;-2.286;2023-02-02T19:22:21;7.03;;;1.58;;
23732;SDS011;12047;53.450;-2.286;2023-02-02T19:27:23;8.68;;;1.52;;
23732;SDS011;12047;53.450;-2.286;2023-02-02T19:32:28;5.22;;;1.45;;
23732;SDS011;12047;53.450;-2.286;2023-02-02T19:37:32;5.22;;;1.63;;
23732;SDS011;12047;53.450;-2.286;2023-02-02T19:42:43;9.07;;;1.80;;
23732;SDS011;12047;53.450;-2.286;2023-02-02T19:47:45;8.80;;;1.48;;
23732;SDS011;12047;53.450;-2.286;2023-02-02T19:52:46;9.13;;;1.48;;
23732;SDS011;12047;53.450;-2.286;2023-02-02T19:57:48;9.20;;;1.55;;
23732;SDS011;12047;53.450;-2.286;2023-02-02T20:13:41;10.02;;;1.95;;
23732;SDS011;12047;53.450;-2.286;2023-02-02T20:18:48;7.13;;;1.75;;
23732;SDS011;12047;53.450;-2.286;2023-02-02T20:23:52;6.63;;;1.60;;
23732;SDS011;12047;53.450;-2.286;2023-02-02T20:28:55;7.25;;;1.60;;
23732;SDS011;12047;53.450;-2.286;2023-02-02T20:34:01;5.63;;;1.23;;
23732;SDS011;12047;53.450;-2.286;2023-02-02T20:39:36;4.65;;;1.20;;
23732;SDS011;12047;53.450;-2.286;2023-02-02T20:44:45;4.17;;;1.23;;
23732;SDS011;12047;53.450;-2.286;2023-02-02T20:49:48;3.75;;;1.20;;
23732;SDS011;12047;53.450;-2.286;2023-02-02T20:54:49;4.90;;;1.60;;
23732;SDS011;12047;53.450;-2.286;2023-02-02T20:59:51;4.25;;;1.00;;
23732;SDS011;12047;53.450;-2.286;2023-02-02T21:16:04;2.97;;;0.95;;
23732;SDS011;12047;53.450;-2.286;2023-02-02T21:21:35;4.57;;;1.00;;
23732;SDS011;12047;53.450;-2.286;2023-02-02T21:26:41;4.93;;;0.80;;
23732;SDS011;12047;53.450;-2.286;2023-02-02T21:31:42;2.60;;;0.80;;
23732;SDS011;12047;53.450;-2.286;2023-02-02T21:36:48;4.68;;;0.82;;
23732;SDS011;12047;53.450;-2.286;2023-02-02T21:47:18;1.83;;;0.75;;
23732;SDS011;12047;53.450;-2.286;2023-02-02T21:52:22;3.20;;;1.02;;
23732;SDS011;12047;53.450;-2.286;2023-02-02T21:57:34;2.17;;;0.80;;
23732;SDS011;12047;53.450;-2.286;2023-02-02T22:02:37;4.38;;;1.13;;
23732;SDS011;12047;53.450;-2.286;2023-02-02T22:07:39;1.70;;;0.77;;
23732;SDS011;12047;53.450;-2.286;2023-02-02T22:12:47;4.63;;;0.80;;
23732;SDS011;12047;53.450;-2.286;2023-02-02T22:17:48;4.75;;;0.88;;
23732;SDS011;12047;53.450;-2.286;2023-02-02T22:22:49;3.90;;;0.90;;
23732;SDS011;12047;53.450;-2.286;2023-02-02T22:27:55;2.45;;;0.73;;
23732;SDS011;12047;53.450;-2.286;2023-02-02T22:32:57;2.55;;;0.80;;
23732;SDS011;12047;53.450;-2.286;2023-02-02T22:37:58;5.18;;;0.70;;
23732;SDS011;12047;53.450;-2.286;2023-02-02T22:43:04;3.97;;;1.00;;
23732;SDS011;12047;53.450;-2.286;2023-02-02T22:48:06;3.47;;;0.80;;
23732;SDS011;12047;53.450;-2.286;2023-02-02T22:53:08;4.28;;;1.35;;
23732;SDS011;12047;53.450;-2.286;2023-02-02T22:58:14;3.25;;;1.00;;
23732;SDS011;12047;53.450;-2.286;2023-02-02T23:03:15;6.13;;;1.00;;
23732;SDS011;12047;53.450;-2.286;2023-02-02T23:08:16;4.53;;;0.90;;
23732;SDS011;12047;53.450;-2.286;2023-02-02T23:13:17;3.92;;;0.90;;
23732;SDS011;12047;53.450;-2.286;2023-02-02T23:18:20;5.93;;;0.80;;
23732;SDS011;12047;53.450;-2.286;2023-02-02T23:23:22;5.55;;;1.30;;
23732;SDS011;12047;53.450;-2.286;2023-02-02T23:28:23;3.17;;;0.85;;
23732;SDS011;12047;53.450;-2.286;2023-02-02T23:33:24;4.85;;;0.82;;
23732;SDS011;12047;53.450;-2.286;2023-02-02T23:38:24;4.45;;;1.00;;
23732;SDS011;12047;53.450;-2.286;2023-02-02T23:43:26;4.63;;;1.10;;
23732;SDS011;12047;53.450;-2.286;2023-02-02T23:48:29;4.65;;;1.13;;
23732;SDS011;12047;53.450;-2.286;2023-02-02T23:53:30;5.40;;;1.40;;
23732;SDS011;12047;53.450;-2.286;2023-02-02T23:58:30;3.97;;;1.05;;
